Terminal Aerodrome Forecast
Issued by NWS

Home | Current Version | Previous Version | Text Only | Print | Product List | Glossary Off
Versions: 1 2 3 4 5 6 7 8 9 10 11 12 13 14 15 16 17 18 19 20 21 22

000
FTUS43 KGRB 251040 AAA
TAFCWA
TAF AMD
KCWA 251040Z 2511/2606 14007KT 1SM BR VCSH BKN003 OVC006
     FM251300 18013KT 3SM RA BR BKN008 OVC015
     FM251700 24015G25KT P6SM VCSH BKN020
     FM260000 22008KT P6SM VCSH BKN035=

USA.gov is the U.S. government's official web portal to all federal, state and local government web resources and services.